Time;durP1;ratioP1;P1;durP2;ratioP2;P2;SDS_P1;SDS_P2;PMS_P1;PMS_P2;Temp;Humidity;BMP_temperature;BMP_pressure;BME280_temperature;BME280_humidity;BME280_pressure;Samples;Min_cycle;Max_cycle;Signal;HPM_P1;HPM_P2
2023/06/20 00:00:07;;;;;;;3.00;2.70;;;21.80;99.90;;;;;;5071717;28;20025;-38
2023/06/20 00:02:33;;;;;;;3.20;2.90;;;21.80;99.90;;;;;;5070634;28;20067;-34
2023/06/20 00:05:03;;;;;;;4.97;3.00;;;21.70;99.90;;;;;;5070825;28;20052;-39
2023/06/20 00:07:29;;;;;;;3.28;2.97;;;21.70;99.90;;;;;;5071463;28;20021;-39
2023/06/20 00:09:55;;;;;;;3.33;2.60;;;21.70;99.90;;;;;;5071283;28;20553;-36
2023/06/20 00:12:20;;;;;;;3.70;3.05;;;21.70;99.90;;;;;;5071684;28;20028;-36
2023/06/20 00:14:46;;;;;;;3.20;2.90;;;21.80;99.90;;;;;;5071328;28;20479;-36
2023/06/20 00:17:13;;;;;;;3.45;3.15;;;21.70;99.90;;;;;;5071085;28;20035;-34
2023/06/20 00:19:40;;;;;;;3.72;3.15;;;21.70;99.90;;;;;;5071160;28;20513;-40
2023/06/20 00:22:05;;;;;;;3.22;2.90;;;21.70;99.90;;;;;;5071248;28;20029;-36
2023/06/20 00:24:32;;;;;;;3.35;2.95;;;21.70;99.90;;;;;;5071338;28;20027;-36
2023/06/20 00:27:00;;;;;;;4.90;3.08;;;21.70;99.90;;;;;;5071265;28;20398;-36
2023/06/20 00:29:26;;;;;;;4.28;3.10;;;21.80;99.90;;;;;;5070987;28;20033;-35
2023/06/20 00:31:51;;;;;;;5.13;3.20;;;21.70;99.90;;;;;;5071085;28;20095;-39
2023/06/20 00:34:17;;;;;;;3.88;3.15;;;21.70;99.90;;;;;;5071236;28;20502;-36
2023/06/20 00:36:43;;;;;;;3.30;3.00;;;21.70;99.90;;;;;;5071170;28;20415;-39
2023/06/20 00:39:08;;;;;;;7.10;3.53;;;21.70;99.90;;;;;;5071300;28;20029;-36
2023/06/20 00:41:34;;;;;;;4.93;3.05;;;21.70;99.90;;;;;;5071279;28;20028;-36
2023/06/20 00:44:03;;;;;;;3.20;2.75;;;21.70;99.90;;;;;;5071027;28;20026;-36
2023/06/20 00:46:32;;;;;;;3.50;3.20;;;21.70;99.90;;;;;;5071300;28;20115;-39
2023/06/20 00:48:59;;;;;;;3.58;3.08;;;21.70;99.90;;;;;;5071301;28;20025;-36
2023/06/20 00:51:28;;;;;;;3.92;3.53;;;21.70;99.90;;;;;;5071052;28;20035;-36
2023/06/20 00:53:54;;;;;;;5.50;3.95;;;21.70;99.90;;;;;;5071676;28;20024;-36
2023/06/20 00:56:20;;;;;;;5.70;3.40;;;21.70;99.90;;;;;;5070865;28;20120;-34
2023/06/20 00:58:46;;;;;;;3.90;3.45;;;21.60;99.90;;;;;;5070869;28;20112;-34
2023/06/20 01:01:11;;;;;;;4.90;3.80;;;21.60;99.90;;;;;;5070760;28;20039;-36
2023/06/20 01:03:38;;;;;;;4.82;3.50;;;21.70;99.90;;;;;;5070941;28;20028;-36
2023/06/20 01:06:35;;;;;;;4.25;3.40;;;21.70;99.90;;;;;;5070928;28;20510;-34
2023/06/20 01:09:28;;;;;;;3.85;3.33;;;21.70;99.90;;;;;;5070537;28;20025;-37
2023/06/20 01:12:06;;;;;;;4.03;3.45;;;21.60;99.90;;;;;;5070883;28;20031;-36
2023/06/20 01:14:42;;;;;;;6.90;3.50;;;21.70;99.90;;;;;;5070940;28;20031;-34
2023/06/20 01:17:46;;;;;;;4.13;3.30;;;21.60;99.90;;;;;;5069676;28;20020;-36
2023/06/20 01:20:25;;;;;;;6.38;3.17;;;21.70;99.90;;;;;;5059441;28;20509;-38
2023/06/20 01:22:57;;;;;;;6.45;4.03;;;21.60;99.90;;;;;;5070859;28;20028;-34
2023/06/20 01:25:56;;;;;;;5.28;3.72;;;21.60;99.90;;;;;;5071220;28;20059;-36
2023/06/20 01:28:41;;;;;;;8.65;3.70;;;21.60;99.90;;;;;;5070572;28;20020;-37
2023/06/20 01:31:12;;;;;;;4.40;3.63;;;21.60;99.90;;;;;;5073282;28;20025;-36
2023/06/20 01:33:47;;;;;;;4.70;3.65;;;21.60;99.90;;;;;;5074406;28;20035;-36
2023/06/20 01:36:17;;;;;;;5.45;3.55;;;21.60;99.90;;;;;;5074337;28;20532;-36
2023/06/20 01:38:45;;;;;;;5.13;3.40;;;21.60;99.90;;;;;;5074326;28;20107;-35
2023/06/20 01:41:13;;;;;;;3.75;3.35;;;21.60;99.90;;;;;;5074421;28;20025;-34
2023/06/20 01:43:39;;;;;;;4.18;3.30;;;21.60;99.90;;;;;;5074375;28;20024;-39
2023/06/20 01:46:06;;;;;;;5.22;3.40;;;21.60;99.90;;;;;;5074314;28;20429;-36
2023/06/20 01:48:34;;;;;;;5.30;3.40;;;21.60;99.90;;;;;;5073861;28;20067;-36
2023/06/20 01:51:00;;;;;;;3.58;3.08;;;21.60;99.90;;;;;;5072688;28;20552;-36
2023/06/20 01:53:27;;;;;;;4.88;3.67;;;21.60;99.90;;;;;;5073974;28;20042;-42
2023/06/20 01:55:55;;;;;;;4.75;3.55;;;21.60;99.90;;;;;;5074012;28;20475;-36
2023/06/20 01:58:22;;;;;;;5.32;3.20;;;21.60;99.90;;;;;;5073915;28;20028;-38
2023/06/20 02:00:48;;;;;;;4.50;3.45;;;21.60;99.90;;;;;;5074063;28;20048;-36
2023/06/20 02:03:16;;;;;;;4.07;3.50;;;21.60;99.90;;;;;;5074538;28;20443;-36
2023/06/20 02:05:44;;;;;;;5.70;3.65;;;21.60;99.90;;;;;;5074187;28;20033;-34
2023/06/20 02:08:12;;;;;;;5.50;3.22;;;21.60;99.90;;;;;;5073786;28;20548;-36
2023/06/20 02:10:39;;;;;;;4.35;3.30;;;21.60;99.90;;;;;;5073821;28;20539;-36
2023/06/20 02:13:06;;;;;;;4.65;3.08;;;21.60;99.90;;;;;;5073726;28;20016;-37
2023/06/20 02:15:34;;;;;;;5.75;3.40;;;21.60;99.90;;;;;;5074517;28;20067;-39
2023/06/20 02:18:02;;;;;;;4.60;3.13;;;21.60;99.90;;;;;;5073610;28;20103;-36
2023/06/20 02:20:28;;;;;;;6.53;3.28;;;21.60;99.90;;;;;;5073680;28;20021;-39
2023/06/20 02:22:55;;;;;;;4.32;3.33;;;21.60;99.90;;;;;;5073539;28;20032;-34
2023/06/20 02:25:26;;;;;;;6.63;3.47;;;21.50;99.90;;;;;;5073541;28;20039;-36
2023/06/20 02:27:54;;;;;;;4.30;3.30;;;21.60;99.90;;;;;;5073464;28;20028;-37
2023/06/20 02:30:23;;;;;;;4.28;3.42;;;21.60;99.90;;;;;;5072924;28;20048;-36
2023/06/20 02:32:49;;;;;;;5.45;3.47;;;21.60;99.90;;;;;;5073361;28;20060;-39
2023/06/20 02:35:17;;;;;;;3.67;3.08;;;21.60;99.90;;;;;;5073345;28;20032;-36
2023/06/20 02:37:44;;;;;;;3.97;3.40;;;21.60;99.90;;;;;;5073192;28;20024;-40
2023/06/20 02:40:11;;;;;;;6.75;3.45;;;21.60;99.90;;;;;;5072749;28;20029;-36
2023/06/20 02:42:36;;;;;;;4.32;3.10;;;21.60;99.90;;;;;;5072746;28;20024;-42
2023/06/20 02:45:02;;;;;;;6.55;3.30;;;21.60;99.90;;;;;;5073273;28;20055;-36
2023/06/20 02:47:35;;;;;;;3.70;3.35;;;21.60;99.90;;;;;;5073219;28;20033;-39
2023/06/20 02:50:24;;;;;;;5.18;2.95;;;21.50;99.90;;;;;;5072719;28;20024;-36
2023/06/20 02:53:04;;;;;;;4.00;3.22;;;21.50;99.90;;;;;;5073074;28;20016;-36
2023/06/20 02:55:46;;;;;;;4.30;3.28;;;21.50;99.90;;;;;;5072966;28;20016;-39
2023/06/20 02:58:13;;;;;;;5.93;3.20;;;21.50;99.90;;;;;;5071560;28;20021;-39
2023/06/20 03:00:45;;;;;;;3.40;3.10;;;21.50;99.90;;;;;;5072768;28;20020;-37
2023/06/20 03:03:16;;;;;;;3.95;3.13;;;21.50;99.90;;;;;;5073002;28;20020;-38
2023/06/20 03:05:43;;;;;;;4.60;3.20;;;21.50;99.90;;;;;;5072579;28;20115;-39
2023/06/20 03:08:10;;;;;;;3.95;3.15;;;21.60;99.90;;;;;;5072685;28;20031;-36
2023/06/20 03:10:36;;;;;;;4.22;3.05;;;21.50;99.90;;;;;;5072198;28;20129;-38
2023/06/20 03:13:03;;;;;;;3.72;3.10;;;21.50;99.90;;;;;;5073125;28;20097;-38
2023/06/20 03:15:29;;;;;;;4.07;3.08;;;21.50;99.90;;;;;;5072778;28;20032;-40
2023/06/20 03:17:55;;;;;;;3.53;3.10;;;21.50;99.90;;;;;;5072744;28;20498;-34
2023/06/20 03:20:20;;;;;;;6.90;2.90;;;21.50;99.90;;;;;;5072262;28;20036;-34
2023/06/20 03:22:46;;;;;;;4.05;3.38;;;21.50;99.90;;;;;;5072320;28;20024;-36
2023/06/20 03:25:11;;;;;;;10.13;3.50;;;21.50;99.90;;;;;;5072597;28;20490;-42
2023/06/20 03:27:38;;;;;;;3.65;2.70;;;21.50;99.90;;;;;;5072547;28;20109;-39
2023/06/20 03:30:05;;;;;;;3.33;3.03;;;21.50;99.90;;;;;;5071863;28;20020;-41
2023/06/20 03:32:30;;;;;;;4.32;3.22;;;21.50;99.90;;;;;;5072056;28;20082;-36
2023/06/20 03:34:56;;;;;;;3.30;2.80;;;21.50;99.90;;;;;;5070808;28;20032;-42
2023/06/20 03:37:21;;;;;;;3.67;2.80;;;21.50;99.90;;;;;;5072087;28;20059;-39
2023/06/20 03:39:47;;;;;;;4.20;3.15;;;21.50;99.90;;;;;;5071863;28;20024;-34
2023/06/20 03:42:13;;;;;;;4.20;3.03;;;21.50;99.90;;;;;;5071832;28;20028;-36
2023/06/20 03:44:38;;;;;;;3.47;3.10;;;21.50;99.90;;;;;;5071949;28;20060;-34
2023/06/20 03:47:04;;;;;;;3.60;2.83;;;21.50;99.90;;;;;;5071848;28;20398;-38
2023/06/20 03:49:30;;;;;;;4.88;3.35;;;21.50;99.90;;;;;;5071559;28;20031;-36
2023/06/20 03:51:55;;;;;;;3.20;2.90;;;21.50;99.90;;;;;;5071297;28;20063;-36
2023/06/20 03:54:21;;;;;;;4.35;3.20;;;21.50;99.90;;;;;;5071329;28;20498;-36
2023/06/20 03:56:47;;;;;;;3.13;2.55;;;21.50;99.90;;;;;;5071829;28;20024;-36
2023/06/20 03:59:14;;;;;;;4.80;3.05;;;21.50;99.90;;;;;;5071596;28;20101;-39
2023/06/20 04:01:40;;;;;;;4.57;3.03;;;21.50;99.90;;;;;;5071481;28;20487;-37
2023/06/20 04:04:05;;;;;;;4.25;3.17;;;21.50;99.90;;;;;;5071943;28;20028;-36
2023/06/20 04:06:32;;;;;;;3.83;2.83;;;21.40;99.90;;;;;;5072434;28;20372;-34
2023/06/20 04:08:58;;;;;;;3.25;2.63;;;21.40;99.90;;;;;;5071258;28;20586;-37
2023/06/20 04:11:24;;;;;;;4.05;3.05;;;21.50;99.90;;;;;;5071614;28;20125;-36
2023/06/20 04:13:50;;;;;;;3.50;3.10;;;21.40;99.90;;;;;;5071855;28;20410;-37
2023/06/20 04:16:16;;;;;;;4.13;2.95;;;21.40;99.90;;;;;;5071530;28;20044;-36
2023/06/20 04:18:41;;;;;;;3.50;2.83;;;21.40;99.90;;;;;;5071462;28;20035;-34
2023/06/20 04:21:07;;;;;;;5.82;2.83;;;21.40;99.90;;;;;;5071391;28;20035;-34
2023/06/20 04:23:33;;;;;;;4.03;3.08;;;21.40;99.90;;;;;;5071392;28;20017;-35
2023/06/20 04:25:59;;;;;;;3.75;3.13;;;21.40;99.90;;;;;;5071291;28;20390;-38
2023/06/20 04:28:24;;;;;;;3.60;3.28;;;21.40;99.90;;;;;;5071252;28;20017;-36
2023/06/20 04:30:52;;;;;;;3.78;2.78;;;21.40;99.90;;;;;;5071003;28;20024;-34
2023/06/20 04:33:19;;;;;;;3.65;2.70;;;21.40;99.90;;;;;;5071233;28;20478;-36
2023/06/20 04:35:44;;;;;;;3.53;3.17;;;21.40;99.90;;;;;;5071218;28;20020;-34
2023/06/20 04:38:10;;;;;;;3.95;2.70;;;21.40;99.90;;;;;;5071178;28;20503;-34
2023/06/20 04:40:36;;;;;;;3.38;2.90;;;21.40;99.90;;;;;;5070976;28;20036;-36
2023/06/20 04:43:03;;;;;;;3.30;2.63;;;21.40;99.90;;;;;;5071213;28;20108;-36
2023/06/20 04:45:30;;;;;;;3.40;2.90;;;21.40;99.90;;;;;;5071085;28;20116;-36
2023/06/20 04:47:56;;;;;;;3.67;2.67;;;21.40;99.90;;;;;;5071641;28;20517;-34
2023/06/20 04:50:22;;;;;;;3.10;2.80;;;21.40;99.90;;;;;;5070744;28;20025;-36
2023/06/20 04:52:48;;;;;;;4.78;2.80;;;21.40;99.90;;;;;;5071079;28;20024;-35
2023/06/20 04:55:14;;;;;;;3.25;2.80;;;21.40;99.90;;;;;;5071013;28;20024;-37
2023/06/20 04:57:39;;;;;;;4.25;2.95;;;21.40;99.90;;;;;;5070997;28;20369;-36
2023/06/20 05:00:12;;;;;;;4.57;2.60;;;21.40;99.90;;;;;;5071147;28;20440;-41
2023/06/20 05:02:42;;;;;;;4.65;2.95;;;21.40;99.90;;;;;;5071042;28;20104;-38
2023/06/20 05:05:08;;;;;;;3.10;2.70;;;21.40;99.90;;;;;;5074106;28;20402;-39
2023/06/20 05:07:34;;;;;;;4.85;3.05;;;21.40;99.90;;;;;;5074988;28;20313;-38
2023/06/20 05:09:59;;;;;;;3.50;2.63;;;21.40;99.90;;;;;;5075810;28;20042;-36
2023/06/20 05:12:25;;;;;;;6.45;2.90;;;21.40;99.90;;;;;;5074873;28;20035;-36
2023/06/20 05:14:50;;;;;;;3.85;3.13;;;21.40;99.90;;;;;;5075413;28;20403;-36
2023/06/20 05:17:16;;;;;;;3.80;2.92;;;21.40;99.90;;;;;;5074732;28;20025;-36
2023/06/20 05:19:42;;;;;;;3.10;2.72;;;21.40;99.90;;;;;;5074640;28;20040;-39
2023/06/20 05:22:07;;;;;;;3.45;2.72;;;21.40;99.90;;;;;;5074660;28;20032;-34
2023/06/20 05:24:33;;;;;;;4.57;2.90;;;21.30;99.90;;;;;;5074652;28;20028;-36
2023/06/20 05:26:58;;;;;;;4.30;2.78;;;21.40;99.90;;;;;;5074661;28;20024;-39
2023/06/20 05:29:24;;;;;;;4.03;2.88;;;21.40;99.90;;;;;;5074429;28;20112;-36
2023/06/20 05:31:50;;;;;;;3.00;2.70;;;21.40;99.90;;;;;;5074505;28;20032;-41
2023/06/20 05:34:15;;;;;;;3.53;2.67;;;21.30;99.90;;;;;;5074407;28;20036;-37
2023/06/20 05:36:41;;;;;;;3.33;2.78;;;21.30;99.90;;;;;;5073119;28;20449;-34
2023/06/20 05:39:08;;;;;;;4.38;2.95;;;21.30;99.90;;;;;;5074595;28;20388;-36
2023/06/20 05:41:35;;;;;;;2.90;2.67;;;21.40;99.90;;;;;;5074123;28;20040;-36
2023/06/20 05:44:01;;;;;;;3.97;2.95;;;21.30;99.90;;;;;;5074313;28;20141;-36
2023/06/20 05:46:27;;;;;;;3.15;2.78;;;21.30;99.90;;;;;;5074291;28;20077;-36
2023/06/20 05:48:53;;;;;;;3.90;2.90;;;21.30;99.90;;;;;;5074532;28;20032;-38
2023/06/20 05:51:18;;;;;;;4.95;3.17;;;21.40;99.90;;;;;;5073933;28;20032;-36
2023/06/20 05:53:44;;;;;;;3.97;3.05;;;21.30;99.90;;;;;;5074096;28;20029;-37
2023/06/20 05:56:10;;;;;;;6.20;3.15;;;21.30;99.90;;;;;;5074260;28;20431;-36
2023/06/20 05:58:36;;;;;;;3.75;2.90;;;21.30;99.90;;;;;;5073797;28;20099;-34
2023/06/20 06:01:03;;;;;;;4.03;2.78;;;21.30;99.90;;;;;;5072975;28;20143;-36
2023/06/20 06:03:30;;;;;;;3.38;2.92;;;21.30;99.90;;;;;;5073885;28;20021;-36
2023/06/20 06:05:55;;;;;;;4.00;3.08;;;21.30;99.90;;;;;;5073883;28;20021;-36
2023/06/20 06:08:21;;;;;;;3.28;2.65;;;21.30;99.90;;;;;;5074142;28;20029;-36
2023/06/20 06:10:47;;;;;;;3.30;2.72;;;21.40;99.90;;;;;;5073589;28;20037;-38
2023/06/20 06:13:12;;;;;;;5.07;2.80;;;21.30;99.90;;;;;;5073544;28;20024;-36
2023/06/20 06:15:38;;;;;;;3.45;3.00;;;21.30;99.90;;;;;;5072749;28;20507;-34
2023/06/20 06:18:03;;;;;;;3.72;2.85;;;21.30;99.90;;;;;;5073758;28;20099;-39
2023/06/20 06:20:29;;;;;;;3.58;2.95;;;21.40;99.90;;;;;;5074173;28;20066;-39
2023/06/20 06:22:55;;;;;;;3.70;2.50;;;21.40;99.90;;;;;;5073922;28;20036;-39
2023/06/20 06:25:21;;;;;;;3.80;3.00;;;21.30;99.90;;;;;;5074002;28;20050;-36
2023/06/20 06:27:46;;;;;;;5.30;2.72;;;21.30;99.90;;;;;;5073993;28;20321;-36
2023/06/20 06:30:14;;;;;;;4.30;2.97;;;21.40;99.90;;;;;;5073228;28;20071;-34
2023/06/20 06:32:41;;;;;;;3.70;2.63;;;21.30;99.90;;;;;;5073413;28;20020;-35
2023/06/20 06:35:09;;;;;;;4.72;2.70;;;21.40;99.90;;;;;;5073370;28;20021;-34
2023/06/20 06:37:35;;;;;;;3.92;3.13;;;21.40;99.90;;;;;;5073296;28;20024;-34
2023/06/20 06:40:01;;;;;;;4.72;3.00;;;21.30;99.90;;;;;;5072953;28;20032;-36
2023/06/20 06:42:27;;;;;;;4.93;2.70;;;21.40;99.90;;;;;;5073127;28;20348;-39
2023/06/20 06:44:53;;;;;;;3.33;2.70;;;21.40;99.90;;;;;;5073650;28;20021;-39
2023/06/20 06:47:18;;;;;;;4.50;2.80;;;21.40;99.90;;;;;;5073009;28;20438;-39
2023/06/20 06:49:44;;;;;;;3.38;2.72;;;21.40;99.90;;;;;;5072892;28;20409;-36
2023/06/20 06:52:10;;;;;;;4.65;2.83;;;21.40;99.90;;;;;;5073168;28;20052;-34
2023/06/20 06:54:35;;;;;;;4.30;3.08;;;21.40;99.90;;;;;;5072870;28;20025;-36
2023/06/20 06:57:01;;;;;;;3.30;2.70;;;21.40;99.90;;;;;;5073157;28;20021;-39
2023/06/20 06:59:27;;;;;;;3.28;2.70;;;21.40;99.90;;;;;;5072969;28;20032;-36
2023/06/20 07:01:52;;;;;;;3.17;2.63;;;21.40;99.90;;;;;;5072834;28;20375;-36
2023/06/20 07:04:18;;;;;;;3.33;2.40;;;21.40;99.90;;;;;;5073011;28;20099;-34
2023/06/20 07:06:43;;;;;;;7.20;3.30;;;21.40;99.90;;;;;;5073219;28;20086;-39
2023/06/20 07:09:09;;;;;;;2.78;2.35;;;21.40;99.90;;;;;;5073016;28;20044;-37
2023/06/20 07:11:35;;;;;;;3.28;2.75;;;21.40;99.90;;;;;;5071501;28;20059;-41
2023/06/20 07:14:00;;;;;;;3.45;2.90;;;21.40;99.90;;;;;;5072638;28;20016;-39
2023/06/20 07:16:28;;;;;;;3.80;2.58;;;21.40;99.90;;;;;;5072690;28;20021;-36
2023/06/20 07:18:54;;;;;;;3.92;3.17;;;21.40;99.90;;;;;;5072832;28;20021;-36
2023/06/20 07:21:19;;;;;;;3.70;3.10;;;21.40;99.90;;;;;;5072530;28;20024;-36
2023/06/20 07:23:45;;;;;;;3.40;2.80;;;21.40;99.90;;;;;;5072469;28;20025;-36
2023/06/20 07:26:11;;;;;;;4.30;2.92;;;21.40;99.90;;;;;;5071361;28;20400;-33
2023/06/20 07:28:36;;;;;;;2.88;2.58;;;21.40;99.90;;;;;;5072130;28;20031;-36
2023/06/20 07:31:02;;;;;;;3.65;2.95;;;21.40;99.90;;;;;;5071991;28;20021;-38
2023/06/20 07:33:28;;;;;;;5.63;3.28;;;21.40;99.90;;;;;;5071447;28;20135;-36
2023/06/20 07:35:54;;;;;;;4.45;2.70;;;21.40;99.90;;;;;;5072207;28;20498;-39
2023/06/20 07:38:19;;;;;;;2.95;2.65;;;21.40;99.90;;;;;;5071975;28;20016;-39
2023/06/20 07:40:45;;;;;;;3.70;2.67;;;21.40;99.90;;;;;;5072410;28;20113;-36
2023/06/20 07:43:11;;;;;;;3.35;2.67;;;21.50;99.90;;;;;;5072064;28;20099;-36
2023/06/20 07:45:36;;;;;;;4.80;2.78;;;21.40;99.90;;;;;;5071897;28;20020;-38
2023/06/20 07:48:03;;;;;;;3.30;2.63;;;21.40;99.90;;;;;;5071894;28;20115;-39
2023/06/20 07:50:30;;;;;;;4.05;2.83;;;21.50;99.90;;;;;;5071485;28;20035;-36
2023/06/20 07:52:55;;;;;;;3.92;2.65;;;21.50;99.90;;;;;;5072192;28;20475;-40
2023/06/20 07:55:21;;;;;;;6.35;2.97;;;21.50;99.90;;;;;;5071722;28;20032;-39
2023/06/20 07:57:48;;;;;;;3.15;2.60;;;21.50;99.90;;;;;;5071906;28;20062;-36
2023/06/20 08:00:14;;;;;;;4.70;2.58;;;21.50;99.90;;;;;;5071815;28;20029;-34
2023/06/20 08:02:39;;;;;;;4.38;2.60;;;21.50;99.90;;;;;;5071647;28;20044;-37
2023/06/20 08:05:08;;;;;;;2.65;2.35;;;21.50;99.90;;;;;;5071678;28;20036;-37
2023/06/20 08:07:35;;;;;;;3.05;2.70;;;21.50;99.90;;;;;;5071461;28;20025;-39
2023/06/20 08:10:02;;;;;;;2.92;2.42;;;21.50;99.90;;;;;;5071306;28;20086;-41
2023/06/20 08:12:27;;;;;;;3.15;2.85;;;21.40;99.90;;;;;;5071596;28;20024;-38
2023/06/20 08:14:53;;;;;;;3.58;2.60;;;21.50;99.90;;;;;;5071403;28;20032;-34
2023/06/20 08:17:19;;;;;;;11.30;4.28;;;21.50;99.90;;;;;;5071398;28;20051;-36
2023/06/20 08:19:45;;;;;;;9.20;5.03;;;21.50;99.90;;;;;;5071344;28;20028;-40
2023/06/20 08:22:10;;;;;;;13.55;5.75;;;21.60;99.90;;;;;;5071633;28;20043;-37
2023/06/20 08:24:36;;;;;;;9.60;5.40;;;21.50;99.90;;;;;;5071458;28;20372;-38
2023/06/20 08:27:03;;;;;;;8.75;5.22;;;21.60;99.90;;;;;;5071309;28;20028;-40
2023/06/20 08:29:29;;;;;;;8.50;5.43;;;21.60;99.90;;;;;;5071093;28;20023;-37
2023/06/20 08:31:55;;;;;;;9.93;5.70;;;21.60;99.90;;;;;;5071066;28;20025;-40
2023/06/20 08:34:20;;;;;;;6.55;5.00;;;21.60;99.90;;;;;;5071241;28;20150;-39
2023/06/20 08:36:46;;;;;;;6.60;5.22;;;21.60;99.90;;;;;;5071119;28;20032;-37
2023/06/20 08:39:12;;;;;;;8.48;5.22;;;21.60;99.90;;;;;;5070892;28;20368;-36
2023/06/20 08:41:38;;;;;;;5.93;4.97;;;21.60;99.90;;;;;;5071192;28;20035;-40
2023/06/20 08:44:04;;;;;;;9.32;5.25;;;21.60;99.90;;;;;;5071324;28;20027;-37
2023/06/20 08:46:31;;;;;;;6.95;4.53;;;21.60;99.90;;;;;;5071215;28;20024;-35
2023/06/20 08:48:57;;;;;;;7.72;4.55;;;21.60;99.90;;;;;;5071557;28;20495;-38
2023/06/20 08:51:25;;;;;;;10.48;5.40;;;21.60;99.90;;;;;;5070892;28;20027;-37
2023/06/20 08:53:53;;;;;;;7.97;5.18;;;21.60;99.90;;;;;;5071095;28;20099;-40
2023/06/20 08:56:21;;;;;;;7.28;4.53;;;21.60;99.90;;;;;;5071049;28;20027;-38
2023/06/20 08:58:47;;;;;;;7.75;4.32;;;21.60;99.90;;;;;;5070859;28;20025;-37
2023/06/20 09:01:12;;;;;;;6.97;4.57;;;21.60;99.90;;;;;;5070824;28;20028;-38
2023/06/20 09:03:38;;;;;;;8.40;4.90;;;21.60;99.90;;;;;;5070964;28;20390;-36
2023/06/20 09:06:04;;;;;;;10.00;4.50;;;21.70;99.90;;;;;;5070837;28;20017;-37
2023/06/20 09:08:40;;;;;;;7.00;4.43;;;21.60;99.90;;;;;;5070857;28;20023;-36
2023/06/20 09:11:11;;;;;;;5.70;4.00;;;21.60;99.90;;;;;;5071019;28;20028;-38
2023/06/20 09:13:37;;;;;;;5.13;4.40;;;21.60;99.90;;;;;;5070963;28;20023;-37
2023/06/20 09:16:11;;;;;;;5.95;4.15;;;21.70;99.90;;;;;;5070822;28;20029;-35
2023/06/20 09:18:40;;;;;;;6.07;4.45;;;21.70;99.90;;;;;;5070698;28;20472;-37
2023/06/20 09:21:06;;;;;;;4.88;3.67;;;21.70;99.90;;;;;;5070623;28;20075;-34
2023/06/20 09:23:33;;;;;;;4.65;4.10;;;21.70;99.90;;;;;;5070791;28;20097;-38
2023/06/20 09:26:16;;;;;;;7.15;3.92;;;21.70;99.90;;;;;;5070915;28;20024;-37
2023/06/20 09:28:42;;;;;;;5.03;4.20;;;21.70;99.90;;;;;;5070487;28;20021;-40
2023/06/20 09:31:08;;;;;;;6.18;4.00;;;21.70;99.90;;;;;;5070396;28;20032;-36
2023/06/20 09:33:37;;;;;;;5.07;3.58;;;21.70;99.90;;;;;;5070641;28;20029;-34
2023/06/20 09:36:16;;;;;;;9.80;4.10;;;21.80;99.90;;;;;;5070713;28;20020;-37
2023/06/20 09:38:51;;;;;;;5.13;3.80;;;21.70;99.90;;;;;;5070490;28;20029;-37
2023/06/20 09:41:17;;;;;;;5.93;3.63;;;21.80;99.90;;;;;;5070410;28;20029;-37
2023/06/20 09:43:44;;;;;;;4.22;3.50;;;21.70;99.90;;;;;;5070561;28;20395;-37
2023/06/20 09:46:09;;;;;;;7.43;3.67;;;21.80;99.90;;;;;;5070616;28;20021;-36
2023/06/20 09:48:36;;;;;;;5.07;4.07;;;21.80;99.90;;;;;;5070843;28;20036;-37
2023/06/20 09:51:05;;;;;;;5.47;3.65;;;21.70;99.90;;;;;;5071458;28;20156;-43
2023/06/20 09:53:56;;;;;;;5.00;3.63;;;21.70;99.90;;;;;;5074126;28;20021;-36
2023/06/20 09:56:24;;;;;;;8.10;3.80;;;21.70;99.90;;;;;;5074109;28;20028;-38
2023/06/20 09:58:51;;;;;;;4.65;3.53;;;21.70;99.90;;;;;;5073853;28;20027;-37
2023/06/20 10:01:20;;;;;;;4.57;3.67;;;21.80;99.90;;;;;;5073783;28;20016;-40
2023/06/20 10:03:47;;;;;;;5.63;4.03;;;21.80;99.90;;;;;;5074352;28;20039;-37
2023/06/20 10:06:14;;;;;;;5.15;3.67;;;21.80;99.90;;;;;;5074024;28;20054;-37
2023/06/20 10:08:40;;;;;;;4.68;3.80;;;21.80;99.90;;;;;;5073505;28;20029;-41
2023/06/20 10:11:07;;;;;;;5.28;3.58;;;21.80;99.90;;;;;;5073685;28;20024;-41
2023/06/20 10:13:34;;;;;;;4.57;3.50;;;21.80;99.90;;;;;;5073776;28;20012;-37
2023/06/20 10:15:59;;;;;;;5.40;3.40;;;21.80;99.90;;;;;;5073830;28;20017;-42
2023/06/20 10:18:31;;;;;;;5.55;3.38;;;21.80;99.90;;;;;;5073604;28;20364;-36
2023/06/20 10:20:56;;;;;;;4.82;3.70;;;21.80;99.90;;;;;;5073343;28;20083;-42
2023/06/20 10:23:30;;;;;;;6.45;3.47;;;21.80;99.90;;;;;;5073616;28;20037;-34
2023/06/20 10:25:58;;;;;;;4.93;3.47;;;21.80;99.90;;;;;;5073645;28;20104;-37
2023/06/20 10:28:24;;;;;;;4.97;3.40;;;21.90;99.90;;;;;;5073340;28;20024;-34
2023/06/20 10:30:50;;;;;;;6.20;3.70;;;21.90;99.90;;;;;;5073582;28;20033;-36
2023/06/20 10:33:23;;;;;;;4.18;3.50;;;21.90;99.90;;;;;;5073978;28;20023;-41
2023/06/20 10:36:09;;;;;;;6.60;3.80;;;21.90;99.90;;;;;;5073425;28;20024;-37
2023/06/20 10:38:59;;;;;;;5.32;3.58;;;21.90;99.90;;;;;;5073092;28;20480;-37
2023/06/20 10:41:28;;;;;;;4.78;3.35;;;21.90;99.90;;;;;;5073082;28;20074;-36
2023/06/20 10:44:01;;;;;;;5.75;3.53;;;21.90;99.90;;;;;;5073110;28;20028;-38
2023/06/20 10:46:42;;;;;;;4.38;3.45;;;21.90;99.90;;;;;;5073292;28;20021;-36
2023/06/20 10:49:09;;;;;;;3.78;3.30;;;21.90;99.90;;;;;;5073060;28;20115;-38
2023/06/20 10:51:49;;;;;;;3.50;3.05;;;21.90;99.90;;;;;;5073006;28;20028;-33
2023/06/20 10:54:16;;;;;;;3.72;3.33;;;21.90;99.90;;;;;;5073027;28;20021;-37
2023/06/20 10:56:46;;;;;;;4.63;3.13;;;21.90;99.90;;;;;;5072925;28;20510;-37
2023/06/20 10:59:17;;;;;;;9.82;3.58;;;21.90;99.90;;;;;;5072179;28;20313;-37
2023/06/20 11:01:43;;;;;;;10.50;4.07;;;22.00;99.90;;;;;;5060955;28;20527;-34
2023/06/20 11:04:13;;;;;;;9.00;4.20;;;22.80;99.90;;;;;;5055242;28;20365;-37
2023/06/20 11:06:40;;;;;;;9.27;4.28;;;23.60;99.90;;;;;;5064785;28;20081;-34
2023/06/20 11:09:16;;;;;;;14.52;5.13;;;24.10;99.90;;;;;;5072285;28;20039;-39
2023/06/20 11:11:41;;;;;;;14.85;4.88;;;24.50;99.90;;;;;;5072860;28;20021;-39
2023/06/20 11:14:15;;;;;;;9.27;4.30;;;24.80;99.90;;;;;;5071457;28;20498;-34
2023/06/20 11:16:42;;;;;;;8.95;4.00;;;25.00;99.90;;;;;;5072742;28;20036;-33
2023/06/20 11:19:08;;;;;;;6.95;3.63;;;25.20;99.90;;;;;;5072747;28;20024;-35
2023/06/20 11:21:34;;;;;;;6.22;3.90;;;25.30;99.90;;;;;;5072170;28;20031;-39
2023/06/20 11:24:04;;;;;;;7.20;3.95;;;25.40;99.90;;;;;;5072683;28;20028;-39
2023/06/20 11:26:31;;;;;;;12.98;3.90;;;25.50;99.90;;;;;;5072207;28;20024;-37
2023/06/20 11:29:04;;;;;;;8.65;3.75;;;25.60;99.90;;;;;;5072261;28;20415;-37
2023/06/20 11:31:30;;;;;;;8.23;4.43;;;25.60;99.90;;;;;;5072032;28;20029;-34
2023/06/20 11:34:09;;;;;;;9.23;3.85;;;25.60;99.90;;;;;;5072092;28;20028;-38
2023/06/20 11:36:37;;;;;;;6.68;3.47;;;25.70;99.90;;;;;;5072272;28;20127;-31
2023/06/20 11:39:08;;;;;;;5.95;3.65;;;25.70;99.90;;;;;;5072247;28;20103;-38
2023/06/20 11:41:34;;;;;;;8.05;3.97;;;25.70;99.90;;;;;;5071826;28;20031;-38
2023/06/20 11:44:01;;;;;;;5.18;3.50;;;25.70;99.90;;;;;;5072048;28;20025;-38
2023/06/20 11:46:27;;;;;;;5.10;3.28;;;25.70;99.90;;;;;;5071890;28;20053;-36
2023/06/20 11:48:56;;;;;;;6.40;3.22;;;25.70;99.90;;;;;;5071850;28;20025;-37
2023/06/20 11:51:24;;;;;;;6.10;3.70;;;25.80;99.90;;;;;;5071705;28;20028;-33
2023/06/20 11:54:04;;;;;;;5.78;3.80;;;25.70;99.90;;;;;;5071867;28;20024;-41
2023/06/20 11:56:30;;;;;;;5.72;3.80;;;25.80;99.90;;;;;;5071846;28;20115;-34
2023/06/20 11:58:56;;;;;;;5.50;3.38;;;25.80;99.90;;;;;;5071578;28;20471;-34
2023/06/20 12:01:25;;;;;;;4.20;3.05;;;25.70;99.90;;;;;;5071525;28;20081;-32
2023/06/20 12:04:12;;;;;;;7.13;3.40;;;25.70;99.90;;;;;;5071683;28;20096;-36
2023/06/20 12:06:42;;;;;;;5.85;3.83;;;25.80;99.90;;;;;;5071760;28;20025;-32
2023/06/20 12:09:16;;;;;;;6.75;3.80;;;25.80;99.90;;;;;;5071339;28;20094;-37
2023/06/20 12:11:49;;;;;;;4.65;3.28;;;25.80;99.90;;;;;;5071534;28;20487;-40
2023/06/20 12:14:16;;;;;;;6.80;3.40;;;25.80;99.90;;;;;;5070809;28;20033;-31
2023/06/20 12:16:41;;;;;;;4.03;3.22;;;25.80;99.90;;;;;;5071477;28;20055;-38
2023/06/20 12:19:07;;;;;;;4.00;3.22;;;25.80;99.90;;;;;;5071369;28;20044;-39
2023/06/20 12:21:33;;;;;;;5.05;3.25;;;25.80;99.90;;;;;;5071259;28;20426;-34
2023/06/20 12:23:58;;;;;;;5.07;3.00;;;25.80;99.90;;;;;;5071218;28;20083;-39
2023/06/20 12:26:24;;;;;;;5.57;3.42;;;25.80;99.90;;;;;;5071343;28;20025;-35
2023/06/20 12:28:50;;;;;;;5.00;3.25;;;25.70;99.90;;;;;;5071175;28;20028;-39
2023/06/20 12:31:15;;;;;;;5.50;3.10;;;25.80;99.90;;;;;;5071120;28;20077;-36
2023/06/20 12:33:41;;;;;;;3.88;3.15;;;25.80;99.90;;;;;;5071332;28;20016;-40
2023/06/20 12:36:08;;;;;;;7.70;3.40;;;25.80;99.90;;;;;;5071279;28;20020;-34
2023/06/20 12:38:34;;;;;;;4.55;2.83;;;25.80;99.90;;;;;;5070981;28;20044;-40
2023/06/20 12:41:00;;;;;;;4.85;3.03;;;25.80;99.90;;;;;;5071028;28;20129;-39
2023/06/20 12:43:26;;;;;;;8.13;3.00;;;25.80;99.90;;;;;;5071175;28;20387;-37
2023/06/20 12:46:01;;;;;;;6.43;3.25;;;25.80;99.90;;;;;;5071172;28;20029;-37
2023/06/20 12:48:26;;;;;;;4.93;3.30;;;25.80;99.90;;;;;;5071133;28;20495;-34